sensor_id;sensor_type;location;lat;lon;timestamp;temperature;humidity
69938;DHT22;57248;47.320;15.998;2024-01-11T00:01:08;-6.45;93.50
69938;DHT22;57248;47.320;15.998;2024-01-11T00:03:40;-6.47;93.38
69938;DHT22;57248;47.320;15.998;2024-01-11T00:06:12;-6.54;92.93
69938;DHT22;57248;47.320;15.998;2024-01-11T00:08:46;-6.57;92.59
69938;DHT22;57248;47.320;15.998;2024-01-11T00:11:18;-6.64;92.04
69938;DHT22;57248;47.320;15.998;2024-01-11T00:13:43;-6.68;92.36
69938;DHT22;57248;47.320;15.998;2024-01-11T00:16:16;-6.68;92.58
69938;DHT22;57248;47.320;15.998;2024-01-11T00:18:55;-6.74;92.92
69938;DHT22;57248;47.320;15.998;2024-01-11T00:21:27;-6.75;92.71
69938;DHT22;57248;47.320;15.998;2024-01-11T00:23:54;-6.72;94.54
69938;DHT22;57248;47.320;15.998;2024-01-11T00:26:26;-6.71;95.40
69938;DHT22;57248;47.320;15.998;2024-01-11T00:28:51;-6.79;94.47
69938;DHT22;57248;47.320;15.998;2024-01-11T00:31:23;-6.75;94.76
69938;DHT22;57248;47.320;15.998;2024-01-11T00:33:55;-6.84;93.09
69938;DHT22;57248;47.320;15.998;2024-01-11T00:36:27;-6.85;93.58
69938;DHT22;57248;47.320;15.998;2024-01-11T00:39:00;-6.84;94.50
69938;DHT22;57248;47.320;15.998;2024-01-11T00:41:32;-6.85;93.33
69938;DHT22;57248;47.320;15.998;2024-01-11T00:44:04;-6.96;93.45
69938;DHT22;57248;47.320;15.998;2024-01-11T00:46:36;-7.06;94.27
69938;DHT22;57248;47.320;15.998;2024-01-11T00:49:10;-7.03;94.00
69938;DHT22;57248;47.320;15.998;2024-01-11T00:51:36;-6.99;95.32
69938;DHT22;57248;47.320;15.998;2024-01-11T00:54:08;-6.89;95.89
69938;DHT22;57248;47.320;15.998;2024-01-11T00:56:40;-6.82;96.03
69938;DHT22;57248;47.320;15.998;2024-01-11T00:59:05;-6.87;95.90
69938;DHT22;57248;47.320;15.998;2024-01-11T01:01:37;-6.89;95.53
69938;DHT22;57248;47.320;15.998;2024-01-11T01:04:09;-6.89;95.38
69938;DHT22;57248;47.320;15.998;2024-01-11T01:06:41;-6.88;95.49
69938;DHT22;57248;47.320;15.998;2024-01-11T01:09:14;-6.85;95.33
69938;DHT22;57248;47.320;15.998;2024-01-11T01:11:46;-6.82;94.77
69938;DHT22;57248;47.320;15.998;2024-01-11T01:14:19;-6.96;94.74
69938;DHT22;57248;47.320;15.998;2024-01-11T01:16:57;-7.06;94.35
69938;DHT22;57248;47.320;15.998;2024-01-11T01:19:29;-7.13;94.45
69938;DHT22;57248;47.320;15.998;2024-01-11T01:22:01;-7.23;95.06
69938;DHT22;57248;47.320;15.998;2024-01-11T01:24:26;-7.20;95.43
69938;DHT22;57248;47.320;15.998;2024-01-11T01:26:58;-7.13;94.97
69938;DHT22;57248;47.320;15.998;2024-01-11T01:29:30;-7.10;95.06
69938;DHT22;57248;47.320;15.998;2024-01-11T01:32:02;-7.15;94.59
69938;DHT22;57248;47.320;15.998;2024-01-11T01:34:34;-7.15;94.64
69938;DHT22;57248;47.320;15.998;2024-01-11T01:37:06;-7.12;95.46
69938;DHT22;57248;47.320;15.998;2024-01-11T01:39:38;-7.16;95.60
69938;DHT22;57248;47.320;15.998;2024-01-11T01:42:10;-7.16;95.33
69938;DHT22;57248;47.320;15.998;2024-01-11T01:44:42;-7.18;95.73
69938;DHT22;57248;47.320;15.998;2024-01-11T01:47:15;-7.12;96.50
69938;DHT22;57248;47.320;15.998;2024-01-11T01:49:42;-7.13;96.66
69938;DHT22;57248;47.320;15.998;2024-01-11T01:52:15;-7.10;96.63
69938;DHT22;57248;47.320;15.998;2024-01-11T01:54:41;-7.05;96.73
69938;DHT22;57248;47.320;15.998;2024-01-11T01:57:13;-7.06;96.44
69938;DHT22;57248;47.320;15.998;2024-01-11T01:59:49;-7.13;95.84
69938;DHT22;57248;47.320;15.998;2024-01-11T02:02:22;-7.13;96.01
69938;DHT22;57248;47.320;15.998;2024-01-11T02:04:54;-7.12;95.99
69938;DHT22;57248;47.320;15.998;2024-01-11T02:07:26;-7.22;95.07
69938;DHT22;57248;47.320;15.998;2024-01-11T02:09:58;-7.24;95.14
69938;DHT22;57248;47.320;15.998;2024-01-11T02:12:30;-7.36;94.70
69938;DHT22;57248;47.320;15.998;2024-01-11T02:15:09;-7.32;95.34
69938;DHT22;57248;47.320;15.998;2024-01-11T02:17:41;-7.34;95.74
69938;DHT22;57248;47.320;15.998;2024-01-11T02:20:13;-7.36;95.23
69938;DHT22;57248;47.320;15.998;2024-01-11T02:22:51;-7.36;95.22
69938;DHT22;57248;47.320;15.998;2024-01-11T02:25:24;-7.50;94.62
69938;DHT22;57248;47.320;15.998;2024-01-11T02:27:56;-7.61;95.57
69938;DHT22;57248;47.320;15.998;2024-01-11T02:30:28;-7.53;95.60
69938;DHT22;57248;47.320;15.998;2024-01-11T02:33:01;-7.55;95.43
69938;DHT22;57248;47.320;15.998;2024-01-11T02:35:34;-7.57;94.81
69938;DHT22;57248;47.320;15.998;2024-01-11T02:38:07;-7.57;95.38
69938;DHT22;57248;47.320;15.998;2024-01-11T02:40:40;-7.55;95.84
69938;DHT22;57248;47.320;15.998;2024-01-11T02:43:12;-7.58;95.87
69938;DHT22;57248;47.320;15.998;2024-01-11T02:45:44;-7.62;95.29
69938;DHT22;57248;47.320;15.998;2024-01-11T02:48:16;-7.58;94.88
69938;DHT22;57248;47.320;15.998;2024-01-11T02:50:48;-7.55;96.71
69938;DHT22;57248;47.320;15.998;2024-01-11T02:53:21;-7.54;96.85
69938;DHT22;57248;47.320;15.998;2024-01-11T02:55:53;-7.57;96.82
69938;DHT22;57248;47.320;15.998;2024-01-11T02:58:18;-7.62;96.42
69938;DHT22;57248;47.320;15.998;2024-01-11T03:00:50;-7.55;96.15
69938;DHT22;57248;47.320;15.998;2024-01-11T03:03:22;-7.58;95.96
69938;DHT22;57248;47.320;15.998;2024-01-11T03:05:54;-7.71;95.80
69938;DHT22;57248;47.320;15.998;2024-01-11T03:08:26;-7.80;94.98
69938;DHT22;57248;47.320;15.998;2024-01-11T03:10:58;-7.82;94.39
69938;DHT22;57248;47.320;15.998;2024-01-11T03:13:31;-7.80;95.42
69938;DHT22;57248;47.320;15.998;2024-01-11T03:16:04;-7.69;95.54
69938;DHT22;57248;47.320;15.998;2024-01-11T03:18:43;-7.81;95.22
69938;DHT22;57248;47.320;15.998;2024-01-11T03:21:15;-7.92;94.92
69938;DHT22;57248;47.320;15.998;2024-01-11T03:23:47;-7.87;95.82
69938;DHT22;57248;47.320;15.998;2024-01-11T03:26:19;-7.77;96.69
69938;DHT22;57248;47.320;15.998;2024-01-11T03:28:51;-7.82;95.68
69938;DHT22;57248;47.320;15.998;2024-01-11T03:31:23;-7.90;95.43
69938;DHT22;57248;47.320;15.998;2024-01-11T03:34:02;-7.80;96.10
69938;DHT22;57248;47.320;15.998;2024-01-11T03:36:34;-7.85;95.59
69938;DHT22;57248;47.320;15.998;2024-01-11T03:39:06;-7.99;95.37
69938;DHT22;57248;47.320;15.998;2024-01-11T03:41:43;-8.06;95.21
69938;DHT22;57248;47.320;15.998;2024-01-11T03:44:15;-8.11;94.73
69938;DHT22;57248;47.320;15.998;2024-01-11T03:46:41;-8.02;95.24
69938;DHT22;57248;47.320;15.998;2024-01-11T03:49:12;-8.06;95.44
69938;DHT22;57248;47.320;15.998;2024-01-11T03:51:44;-7.97;96.58
69938;DHT22;57248;47.320;15.998;2024-01-11T03:54:16;-7.98;97.13
69938;DHT22;57248;47.320;15.998;2024-01-11T03:56:48;-7.95;96.92
69938;DHT22;57248;47.320;15.998;2024-01-11T03:59:20;-8.02;95.98
69938;DHT22;57248;47.320;15.998;2024-01-11T04:01:52;-8.02;95.73
69938;DHT22;57248;47.320;15.998;2024-01-11T04:04:17;-7.99;95.75
69938;DHT22;57248;47.320;15.998;2024-01-11T04:06:49;-8.15;95.13
69938;DHT22;57248;47.320;15.998;2024-01-11T04:09:21;-8.16;95.53
69938;DHT22;57248;47.320;15.998;2024-01-11T04:11:53;-8.12;96.49
69938;DHT22;57248;47.320;15.998;2024-01-11T04:14:25;-8.13;95.83
69938;DHT22;57248;47.320;15.998;2024-01-11T04:16:57;-8.23;95.47
69938;DHT22;57248;47.320;15.998;2024-01-11T04:19:29;-8.25;95.67
69938;DHT22;57248;47.320;15.998;2024-01-11T04:22:01;-8.25;95.60
69938;DHT22;57248;47.320;15.998;2024-01-11T04:24:42;-8.23;95.78
69938;DHT22;57248;47.320;15.998;2024-01-11T04:27:14;-8.21;95.79
69938;DHT22;57248;47.320;15.998;2024-01-11T04:29:46;-8.23;95.46
69938;DHT22;57248;47.320;15.998;2024-01-11T04:32:11;-8.25;95.37
69938;DHT22;57248;47.320;15.998;2024-01-11T04:34:43;-8.28;96.02
69938;DHT22;57248;47.320;15.998;2024-01-11T04:37:16;-8.30;95.33
69938;DHT22;57248;47.320;15.998;2024-01-11T04:39:49;-8.34;95.72
69938;DHT22;57248;47.320;15.998;2024-01-11T04:42:21;-8.37;95.38
69938;DHT22;57248;47.320;15.998;2024-01-11T04:44:53;-8.37;96.19
69938;DHT22;57248;47.320;15.998;2024-01-11T04:47:19;-8.37;96.27
69938;DHT22;57248;47.320;15.998;2024-01-11T04:49:51;-8.37;96.78
69938;DHT22;57248;47.320;15.998;2024-01-11T04:52:23;-8.36;96.52
69938;DHT22;57248;47.320;15.998;2024-01-11T04:54:55;-8.30;97.01
69938;DHT22;57248;47.320;15.998;2024-01-11T04:57:27;-8.23;97.45
69938;DHT22;57248;47.320;15.998;2024-01-11T04:59:59;-8.15;97.67
69938;DHT22;57248;47.320;15.998;2024-01-11T05:02:24;-8.21;96.98
69938;DHT22;57248;47.320;15.998;2024-01-11T05:04:56;-8.22;96.62
69938;DHT22;57248;47.320;15.998;2024-01-11T05:07:28;-8.23;96.61
69938;DHT22;57248;47.320;15.998;2024-01-11T05:10:00;-8.29;96.20
69938;DHT22;57248;47.320;15.998;2024-01-11T05:12:27;-8.39;95.79
69938;DHT22;57248;47.320;15.998;2024-01-11T05:15:07;-8.43;95.87
69938;DHT22;57248;47.320;15.998;2024-01-11T05:17:40;-8.34;97.17
69938;DHT22;57248;47.320;15.998;2024-01-11T05:20:14;-8.22;96.39
69938;DHT22;57248;47.320;15.998;2024-01-11T05:22:46;-8.42;96.08
69938;DHT22;57248;47.320;15.998;2024-01-11T05:25:18;-8.52;96.13
69938;DHT22;57248;47.320;15.998;2024-01-11T05:27:50;-8.70;97.14
69938;DHT22;57248;47.320;15.998;2024-01-11T05:30:16;-8.57;97.42
69938;DHT22;57248;47.320;15.998;2024-01-11T05:32:48;-8.54;97.78
69938;DHT22;57248;47.320;15.998;2024-01-11T05:35:14;-8.53;96.80
69938;DHT22;57248;47.320;15.998;2024-01-11T05:37:45;-8.43;97.35
69938;DHT22;57248;47.320;15.998;2024-01-11T05:40:17;1.34;99.99
69938;DHT22;57248;47.320;15.998;2024-01-11T05:42:49;2.30;96.24
69938;DHT22;57248;47.320;15.998;2024-01-11T05:45:22;-2.90;82.92
69938;DHT22;57248;47.320;15.998;2024-01-11T05:47:48;-4.58;91.54
69938;DHT22;57248;47.320;15.998;2024-01-11T05:50:20;-5.71;94.83
69938;DHT22;57248;47.320;15.998;2024-01-11T05:52:52;-6.61;95.63
69938;DHT22;57248;47.320;15.998;2024-01-11T05:55:25;-6.82;97.20
69938;DHT22;57248;47.320;15.998;2024-01-11T05:57:57;-7.01;95.95
69938;DHT22;57248;47.320;15.998;2024-01-11T06:00:29;-7.19;95.73
69938;DHT22;57248;47.320;15.998;2024-01-11T06:02:55;-7.39;96.27
69938;DHT22;57248;47.320;15.998;2024-01-11T06:05:27;-7.46;95.93
69938;DHT22;57248;47.320;15.998;2024-01-11T06:07:59;-7.62;95.70
69938;DHT22;57248;47.320;15.998;2024-01-11T06:10:32;-7.75;95.45
69938;DHT22;57248;47.320;15.998;2024-01-11T06:13:07;-7.81;96.89
69938;DHT22;57248;47.320;15.998;2024-01-11T06:15:53;-7.92;95.72
69938;DHT22;57248;47.320;15.998;2024-01-11T06:18:32;-7.99;95.91
69938;DHT22;57248;47.320;15.998;2024-01-11T06:21:04;-8.06;94.98
69938;DHT22;57248;47.320;15.998;2024-01-11T06:23:30;-8.21;95.31
69938;DHT22;57248;47.320;15.998;2024-01-11T06:26:04;-8.34;96.41
69938;DHT22;57248;47.320;15.998;2024-01-11T06:28:29;-8.30;96.23
69938;DHT22;57248;47.320;15.998;2024-01-11T06:31:01;-8.25;96.70
69938;DHT22;57248;47.320;15.998;2024-01-11T06:33:33;-8.25;97.13
69938;DHT22;57248;47.320;15.998;2024-01-11T06:36:08;-8.22;96.93
69938;DHT22;57248;47.320;15.998;2024-01-11T06:38:40;-8.22;96.59
69938;DHT22;57248;47.320;15.998;2024-01-11T06:41:13;-8.22;95.95
69938;DHT22;57248;47.320;15.998;2024-01-11T06:43:45;-8.29;96.10
69938;DHT22;57248;47.320;15.998;2024-01-11T06:46:10;-8.33;95.86
69938;DHT22;57248;47.320;15.998;2024-01-11T06:48:43;-8.30;95.87
69938;DHT22;57248;47.320;15.998;2024-01-11T06:51:16;-8.30;95.79
69938;DHT22;57248;47.320;15.998;2024-01-11T06:53:42;-8.32;96.41
69938;DHT22;57248;47.320;15.998;2024-01-11T06:56:15;-8.25;95.55
69938;DHT22;57248;47.320;15.998;2024-01-11T06:58:47;-8.22;95.73
69938;DHT22;57248;47.320;15.998;2024-01-11T07:01:19;-8.15;95.85
69938;DHT22;57248;47.320;15.998;2024-01-11T07:03:51;-8.01;95.77
69938;DHT22;57248;47.320;15.998;2024-01-11T07:06:23;-7.98;95.26
69938;DHT22;57248;47.320;15.998;2024-01-11T07:08:55;-7.84;95.39
69938;DHT22;57248;47.320;15.998;2024-01-11T07:11:20;-7.74;95.13
69938;DHT22;57248;47.320;15.998;2024-01-11T07:13:53;-7.51;94.83
69938;DHT22;57248;47.320;15.998;2024-01-11T07:16:25;-7.22;93.83
69938;DHT22;57248;47.320;15.998;2024-01-11T07:18:58;-7.05;92.51
69938;DHT22;57248;47.320;15.998;2024-01-11T07:21:30;-6.81;91.42
69938;DHT22;57248;47.320;15.998;2024-01-11T07:24:03;-6.54;90.80
69938;DHT22;57248;47.320;15.998;2024-01-11T07:26:35;-6.44;90.37
69938;DHT22;57248;47.320;15.998;2024-01-11T07:29:09;-6.06;89.27
69938;DHT22;57248;47.320;15.998;2024-01-11T07:31:41;-5.64;88.96
69938;DHT22;57248;47.320;15.998;2024-01-11T07:34:13;-5.35;87.72
69938;DHT22;57248;47.320;15.998;2024-01-11T07:36:45;-4.95;86.71
69938;DHT22;57248;47.320;15.998;2024-01-11T07:39:19;-4.79;86.68
69938;DHT22;57248;47.320;15.998;2024-01-11T07:41:44;-4.41;85.48
69938;DHT22;57248;47.320;15.998;2024-01-11T07:44:18;-4.21;84.97
69938;DHT22;57248;47.320;15.998;2024-01-11T07:46:50;-3.70;83.03
69938;DHT22;57248;47.320;15.998;2024-01-11T07:49:22;-3.58;82.41
69938;DHT22;57248;47.320;15.998;2024-01-11T07:51:54;-3.28;82.62
69938;DHT22;57248;47.320;15.998;2024-01-11T07:54:26;-3.07;82.42
69938;DHT22;57248;47.320;15.998;2024-01-11T07:56:59;-2.75;81.49
69938;DHT22;57248;47.320;15.998;2024-01-11T07:59:34;-2.14;79.87
69938;DHT22;57248;47.320;15.998;2024-01-11T08:02:09;-1.94;78.81
69938;DHT22;57248;47.320;15.998;2024-01-11T08:04:41;-1.84;79.11
69938;DHT22;57248;47.320;15.998;2024-01-11T08:07:13;-1.28;77.85
69938;DHT22;57248;47.320;15.998;2024-01-11T08:09:45;-1.52;76.87
69938;DHT22;57248;47.320;15.998;2024-01-11T08:12:17;-0.89;77.64
69938;DHT22;57248;47.320;15.998;2024-01-11T08:14:50;-0.98;76.31
69938;DHT22;57248;47.320;15.998;2024-01-11T08:17:22;-0.78;76.71
69938;DHT22;57248;47.320;15.998;2024-01-11T08:19:54;-0.25;75.63
69938;DHT22;57248;47.320;15.998;2024-01-11T08:22:28;-0.16;74.57
69938;DHT22;57248;47.320;15.998;2024-01-11T08:25:05;0.06;74.49
69938;DHT22;57248;47.320;15.998;2024-01-11T08:27:40;0.74;73.22
69938;DHT22;57248;47.320;15.998;2024-01-11T08:30:12;1.25;71.75
69938;DHT22;57248;47.320;15.998;2024-01-11T08:32:44;1.41;71.63
69938;DHT22;57248;47.320;15.998;2024-01-11T08:35:16;1.59;70.92
69938;DHT22;57248;47.320;15.998;2024-01-11T08:37:42;1.73;70.62
69938;DHT22;57248;47.320;15.998;2024-01-11T08:40:14;4.22;68.38
69938;DHT22;57248;47.320;15.998;2024-01-11T08:42:47;2.86;67.48
69938;DHT22;57248;47.320;15.998;2024-01-11T08:45:13;2.89;66.88
69938;DHT22;57248;47.320;15.998;2024-01-11T08:47:49;2.93;66.53
69938;DHT22;57248;47.320;15.998;2024-01-11T08:50:21;3.26;65.86
69938;DHT22;57248;47.320;15.998;2024-01-11T08:52:59;4.22;65.55
69938;DHT22;57248;47.320;15.998;2024-01-11T08:55:33;4.12;62.37
69938;DHT22;57248;47.320;15.998;2024-01-11T08:58:05;3.98;62.68
69938;DHT22;57248;47.320;15.998;2024-01-11T09:00:39;4.64;62.86
69938;DHT22;57248;47.320;15.998;2024-01-11T09:03:05;4.70;62.47
69938;DHT22;57248;47.320;15.998;2024-01-11T09:05:37;4.75;61.45
69938;DHT22;57248;47.320;15.998;2024-01-11T09:08:09;4.13;62.62
69938;DHT22;57248;47.320;15.998;2024-01-11T09:10:41;4.70;62.21
69938;DHT22;57248;47.320;15.998;2024-01-11T09:13:15;5.19;59.99
69938;DHT22;57248;47.320;15.998;2024-01-11T09:16:00;5.49;60.54
69938;DHT22;57248;47.320;15.998;2024-01-11T09:18:32;5.87;58.34
69938;DHT22;57248;47.320;15.998;2024-01-11T09:21:04;6.83;58.26
69938;DHT22;57248;47.320;15.998;2024-01-11T09:23:36;6.69;55.48
69938;DHT22;57248;47.320;15.998;2024-01-11T09:26:09;6.63;55.60
69938;DHT22;57248;47.320;15.998;2024-01-11T09:28:41;7.85;53.44
69938;DHT22;57248;47.320;15.998;2024-01-11T09:31:06;6.94;54.94
69938;DHT22;57248;47.320;15.998;2024-01-11T09:33:45;6.48;55.29
69938;DHT22;57248;47.320;15.998;2024-01-11T09:36:17;7.56;53.68
69938;DHT22;57248;47.320;15.998;2024-01-11T09:38:43;8.31;52.22
69938;DHT22;57248;47.320;15.998;2024-01-11T09:41:15;8.48;53.14
69938;DHT22;57248;47.320;15.998;2024-01-11T09:43:50;9.30;49.88
69938;DHT22;57248;47.320;15.998;2024-01-11T09:46:26;8.79;52.73
69938;DHT22;57248;47.320;15.998;2024-01-11T09:49:00;8.74;51.69
69938;DHT22;57248;47.320;15.998;2024-01-11T09:51:34;8.69;52.02
69938;DHT22;57248;47.320;15.998;2024-01-11T09:54:10;8.40;51.80
69938;DHT22;57248;47.320;15.998;2024-01-11T09:56:43;9.81;49.62
69938;DHT22;57248;47.320;15.998;2024-01-11T09:59:18;9.19;50.73
69938;DHT22;57248;47.320;15.998;2024-01-11T10:01:45;9.54;49.41
69938;DHT22;57248;47.320;15.998;2024-01-11T10:04:17;9.87;46.96
69938;DHT22;57248;47.320;15.998;2024-01-11T10:06:51;10.04;48.11
69938;DHT22;57248;47.320;15.998;2024-01-11T10:09:25;10.45;46.74
69938;DHT22;57248;47.320;15.998;2024-01-11T10:11:58;9.65;47.62
69938;DHT22;57248;47.320;15.998;2024-01-11T10:14:31;10.49;46.84
69938;DHT22;57248;47.320;15.998;2024-01-11T10:17:10;10.35;46.62
69938;DHT22;57248;47.320;15.998;2024-01-11T10:19:42;10.89;45.84
69938;DHT22;57248;47.320;15.998;2024-01-11T10:22:14;11.92;44.74
69938;DHT22;57248;47.320;15.998;2024-01-11T10:25:13;11.54;44.70
69938;DHT22;57248;47.320;15.998;2024-01-11T10:27:53;10.50;46.82
69938;DHT22;57248;47.320;15.998;2024-01-11T10:30:19;10.94;46.50
69938;DHT22;57248;47.320;15.998;2024-01-11T10:32:57;11.52;60.94
69938;DHT22;57248;47.320;15.998;2024-01-11T10:35:29;11.49;54.30
69938;DHT22;57248;47.320;15.998;2024-01-11T10:38:08;9.97;49.48
69938;DHT22;57248;47.320;15.998;2024-01-11T10:40:42;12.03;56.97
69938;DHT22;57248;47.320;15.998;2024-01-11T10:43:19;12.16;52.74
69938;DHT22;57248;47.320;15.998;2024-01-11T10:45:57;10.16;51.95
69938;DHT22;57248;47.320;15.998;2024-01-11T10:48:32;11.93;50.55
69938;DHT22;57248;47.320;15.998;2024-01-11T10:51:01;11.55;51.01
69938;DHT22;57248;47.320;15.998;2024-01-11T10:56:14;12.89;47.80
69938;DHT22;57248;47.320;15.998;2024-01-11T10:58:50;12.96;48.89
69938;DHT22;57248;47.320;15.998;2024-01-11T11:01:23;12.62;46.30
69938;DHT22;57248;47.320;15.998;2024-01-11T11:03:56;12.98;48.60
69938;DHT22;57248;47.320;15.998;2024-01-11T11:06:22;12.14;50.52
69938;DHT22;57248;47.320;15.998;2024-01-11T11:08:55;13.91;48.11
69938;DHT22;57248;47.320;15.998;2024-01-11T11:11:30;14.12;46.66
69938;DHT22;57248;47.320;15.998;2024-01-11T11:14:03;14.01;39.45
69938;DHT22;57248;47.320;15.998;2024-01-11T11:16:36;14.79;40.07
69938;DHT22;57248;47.320;15.998;2024-01-11T11:19:08;13.13;40.66
69938;DHT22;57248;47.320;15.998;2024-01-11T11:21:44;11.69;41.07
69938;DHT22;57248;47.320;15.998;2024-01-11T11:24:23;13.38;41.21
69938;DHT22;57248;47.320;15.998;2024-01-11T11:26:56;13.57;39.38
69938;DHT22;57248;47.320;15.998;2024-01-11T11:29:22;11.68;40.35
69938;DHT22;57248;47.320;15.998;2024-01-11T11:31:54;14.02;40.32
69938;DHT22;57248;47.320;15.998;2024-01-11T11:37:23;15.16;36.06
69938;DHT22;57248;47.320;15.998;2024-01-11T11:39:57;15.51;36.95
69938;DHT22;57248;47.320;15.998;2024-01-11T11:42:23;15.18;36.17
69938;DHT22;57248;47.320;15.998;2024-01-11T11:44:56;15.81;36.47
69938;DHT22;57248;47.320;15.998;2024-01-11T11:47:35;16.48;35.50
69938;DHT22;57248;47.320;15.998;2024-01-11T11:50:08;16.28;34.82
69938;DHT22;57248;47.320;15.998;2024-01-11T11:52:39;15.38;35.61
69938;DHT22;57248;47.320;15.998;2024-01-11T11:55:11;14.49;37.79
69938;DHT22;57248;47.320;15.998;2024-01-11T11:57:43;14.30;38.49
69938;DHT22;57248;47.320;15.998;2024-01-11T12:00:18;15.82;37.15
69938;DHT22;57248;47.320;15.998;2024-01-11T12:02:52;15.35;36.15
69938;DHT22;57248;47.320;15.998;2024-01-11T12:05:24;16.26;35.20
69938;DHT22;57248;47.320;15.998;2024-01-11T12:07:57;14.84;36.34
69938;DHT22;57248;47.320;15.998;2024-01-11T12:10:29;15.62;36.32
69938;DHT22;57248;47.320;15.998;2024-01-11T12:12:55;16.05;35.32
69938;DHT22;57248;47.320;15.998;2024-01-11T12:15:27;14.91;36.19
69938;DHT22;57248;47.320;15.998;2024-01-11T12:18:07;15.20;37.85
69938;DHT22;57248;47.320;15.998;2024-01-11T12:20:39;14.30;38.97
69938;DHT22;57248;47.320;15.998;2024-01-11T12:23:12;16.72;35.32
69938;DHT22;57248;47.320;15.998;2024-01-11T12:25:47;17.22;35.03
69938;DHT22;57248;47.320;15.998;2024-01-11T12:28:19;15.69;35.63
69938;DHT22;57248;47.320;15.998;2024-01-11T12:30:52;15.61;36.57
69938;DHT22;57248;47.320;15.998;2024-01-11T12:33:18;14.21;37.25
69938;DHT22;57248;47.320;15.998;2024-01-11T12:35:50;13.38;38.75
69938;DHT22;57248;47.320;15.998;2024-01-11T12:38:22;14.02;38.42
69938;DHT22;57248;47.320;15.998;2024-01-11T12:40:54;14.87;38.50
69938;DHT22;57248;47.320;15.998;2024-01-11T12:43:27;11.66;42.45
69938;DHT22;57248;47.320;15.998;2024-01-11T12:45:53;12.54;41.31
69938;DHT22;57248;47.320;15.998;2024-01-11T12:48:25;14.32;39.07
69938;DHT22;57248;47.320;15.998;2024-01-11T12:50:52;14.21;38.38
69938;DHT22;57248;47.320;15.998;2024-01-11T12:53:25;13.73;38.38
69938;DHT22;57248;47.320;15.998;2024-01-11T12:56:07;12.85;39.07
69938;DHT22;57248;47.320;15.998;2024-01-11T12:58:42;12.84;39.44
69938;DHT22;57248;47.320;15.998;2024-01-11T13:01:14;13.84;37.35
69938;DHT22;57248;47.320;15.998;2024-01-11T13:03:48;15.11;36.81
69938;DHT22;57248;47.320;15.998;2024-01-11T13:06:20;13.68;38.02
69938;DHT22;57248;47.320;15.998;2024-01-11T13:08:52;15.16;37.76
69938;DHT22;57248;47.320;15.998;2024-01-11T13:11:24;14.45;36.28
69938;DHT22;57248;47.320;15.998;2024-01-11T13:14:03;14.04;37.29
69938;DHT22;57248;47.320;15.998;2024-01-11T13:16:48;10.36;42.87
69938;DHT22;57248;47.320;15.998;2024-01-11T13:19:20;9.98;44.69
69938;DHT22;57248;47.320;15.998;2024-01-11T13:21:46;10.38;44.36
69938;DHT22;57248;47.320;15.998;2024-01-11T13:24:17;10.18;44.03
69938;DHT22;57248;47.320;15.998;2024-01-11T13:26:49;10.01;45.01
69938;DHT22;57248;47.320;15.998;2024-01-11T13:29:15;9.65;43.91
69938;DHT22;57248;47.320;15.998;2024-01-11T13:31:46;10.35;44.25
69938;DHT22;57248;47.320;15.998;2024-01-11T13:34:18;10.55;43.07
69938;DHT22;57248;47.320;15.998;2024-01-11T13:36:50;10.22;43.59
69938;DHT22;57248;47.320;15.998;2024-01-11T13:39:24;9.51;45.15
69938;DHT22;57248;47.320;15.998;2024-01-11T13:41:57;9.08;45.69
69938;DHT22;57248;47.320;15.998;2024-01-11T13:44:29;8.64;48.66
69938;DHT22;57248;47.320;15.998;2024-01-11T13:46:55;10.01;46.47
69938;DHT22;57248;47.320;15.998;2024-01-11T13:49:26;10.77;44.96
69938;DHT22;57248;47.320;15.998;2024-01-11T13:51:58;10.55;44.85
69938;DHT22;57248;47.320;15.998;2024-01-11T13:54:30;10.39;45.52
69938;DHT22;57248;47.320;15.998;2024-01-11T13:57:03;10.52;46.13
69938;DHT22;57248;47.320;15.998;2024-01-11T13:59:35;10.33;45.71
69938;DHT22;57248;47.320;15.998;2024-01-11T14:02:01;10.11;45.32
69938;DHT22;57248;47.320;15.998;2024-01-11T14:04:34;9.63;46.34
69938;DHT22;57248;47.320;15.998;2024-01-11T14:07:06;8.88;46.62
69938;DHT22;57248;47.320;15.998;2024-01-11T14:09:39;7.55;48.84
69938;DHT22;57248;47.320;15.998;2024-01-11T14:12:11;8.33;48.23
69938;DHT22;57248;47.320;15.998;2024-01-11T14:14:45;7.87;48.57
69938;DHT22;57248;47.320;15.998;2024-01-11T14:17:23;6.82;51.90
69938;DHT22;57248;47.320;15.998;2024-01-11T14:19:55;7.23;52.77
69938;DHT22;57248;47.320;15.998;2024-01-11T14:22:29;7.82;50.70
69938;DHT22;57248;47.320;15.998;2024-01-11T14:25:01;7.58;49.94
69938;DHT22;57248;47.320;15.998;2024-01-11T14:27:34;7.41;51.37
69938;DHT22;57248;47.320;15.998;2024-01-11T14:30:07;7.36;51.53
69938;DHT22;57248;47.320;15.998;2024-01-11T14:32:39;7.08;53.44
69938;DHT22;57248;47.320;15.998;2024-01-11T14:35:13;6.04;54.89
69938;DHT22;57248;47.320;15.998;2024-01-11T14:37:47;5.83;55.85
69938;DHT22;57248;47.320;15.998;2024-01-11T14:40:18;5.78;55.77
69938;DHT22;57248;47.320;15.998;2024-01-11T14:42:50;5.18;57.76
69938;DHT22;57248;47.320;15.998;2024-01-11T14:45:24;5.08;57.81
69938;DHT22;57248;47.320;15.998;2024-01-11T14:47:49;5.11;58.05
69938;DHT22;57248;47.320;15.998;2024-01-11T14:50:21;4.84;59.49
69938;DHT22;57248;47.320;15.998;2024-01-11T14:52:53;4.73;60.68
69938;DHT22;57248;47.320;15.998;2024-01-11T14:55:28;4.57;60.57
69938;DHT22;57248;47.320;15.998;2024-01-11T14:58:00;4.09;61.09
69938;DHT22;57248;47.320;15.998;2024-01-11T15:00:34;2.99;66.12
69938;DHT22;57248;47.320;15.998;2024-01-11T15:03:06;3.06;66.73
69938;DHT22;57248;47.320;15.998;2024-01-11T15:05:38;3.41;65.39
69938;DHT22;57248;47.320;15.998;2024-01-11T15:08:10;3.37;64.79
69938;DHT22;57248;47.320;15.998;2024-01-11T15:10:42;3.23;64.78
69938;DHT22;57248;47.320;15.998;2024-01-11T15:13:17;3.16;64.78
69938;DHT22;57248;47.320;15.998;2024-01-11T15:15:49;2.91;66.00
69938;DHT22;57248;47.320;15.998;2024-01-11T15:18:29;2.49;67.41
69938;DHT22;57248;47.320;15.998;2024-01-11T15:20:55;2.38;68.16
69938;DHT22;57248;47.320;15.998;2024-01-11T15:23:26;1.53;70.49
69938;DHT22;57248;47.320;15.998;2024-01-11T15:25:59;1.66;70.08
69938;DHT22;57248;47.320;15.998;2024-01-11T15:28:31;1.63;70.66
69938;DHT22;57248;47.320;15.998;2024-01-11T15:31:04;1.65;69.95
69938;DHT22;57248;47.320;15.998;2024-01-11T15:33:39;1.55;70.48
69938;DHT22;57248;47.320;15.998;2024-01-11T15:36:12;1.38;71.56
69938;DHT22;57248;47.320;15.998;2024-01-11T15:38:38;1.22;72.16
69938;DHT22;57248;47.320;15.998;2024-01-11T15:41:09;0.95;73.83
69938;DHT22;57248;47.320;15.998;2024-01-11T15:43:41;1.00;73.56
69938;DHT22;57248;47.320;15.998;2024-01-11T15:46:16;0.90;73.92
69938;DHT22;57248;47.320;15.998;2024-01-11T15:48:49;0.73;74.71
69938;DHT22;57248;47.320;15.998;2024-01-11T15:51:15;0.67;74.01
69938;DHT22;57248;47.320;15.998;2024-01-11T15:53:47;0.63;74.72
69938;DHT22;57248;47.320;15.998;2024-01-11T15:56:20;0.12;77.81